»·PEaware :: N614FT KTUS-KDUG

N614FT :: KTUS-KDUG

FLIGHT INFORMATION

Flight Status: Arrived
Operator: Privately registered:
United States
More flights under this callsign
Pilot: Carlos A. (16805)
Aircraft: PIPER PA-31/31P NAVAJO CHIEFTAIN
(PA31)
More flights by this aircraft type
Origin: KTUS Tucson Intl
United States
Destination: KDUG Bisbee Douglas Intl
United States
More flights between these airports :: More routes between these airports
Route:
File this flight plan on PilotEdge
Remarks: Arizona Alphabet Challenge
Altitude:
(Current/Filed)
7,500ft
Speed:
(Current/Filed)
180kts
Departed: 24-Sep-23 08:50 AM
Arrived: 24-Sep-23 09:20 AM
Distance/Time
Traveled:
79nm/0:30
Distance/Time
To Go:
Arrived

Flight Plot

Page will automatically refresh every two minutes.

Flight plan parsing failed; only flown route is shown


Map Options




Map Legend


Flown Route
Filed Route
Departure Airport
Arrival Airport
Navaid (VOR, NDB)
Fix

Horizontal Profiles

Position Reports

Time Latitude Longitude Heading Altitude Ground
Speed
24-Sep-23 08:22 32.126042 -110.944012 310 2647ft 0kts
24-Sep-23 08:23 32.126043 -110.944014 310 2647ft 0kts
24-Sep-23 08:24 32.126045 -110.944016 310 2647ft 0kts
24-Sep-23 08:25 32.126046 -110.944017 310 2647ft 0kts
24-Sep-23 08:26 32.126047 -110.944019 310 2647ft 0kts
24-Sep-23 08:27 32.126049 -110.944021 310 2647ft 0kts
24-Sep-23 08:28 32.126050 -110.944023 310 2647ft 0kts
24-Sep-23 08:29 32.126051 -110.944025 310 2647ft 0kts
24-Sep-23 08:30 32.126053 -110.944026 310 2647ft 0kts
24-Sep-23 08:31 32.126054 -110.944028 310 2647ft 0kts
24-Sep-23 08:32 32.126055 -110.944030 310 2647ft 0kts
24-Sep-23 08:33 32.126114 -110.944099 315 2647ft 0kts
24-Sep-23 08:34 32.126158 -110.944241 306 2647ft 0kts
24-Sep-23 08:35 32.126162 -110.944247 306 2647ft 0kts
24-Sep-23 08:36 32.126165 -110.944252 306 2647ft 0kts
24-Sep-23 08:37 32.126167 -110.944255 306 2647ft 0kts
24-Sep-23 08:38 32.126172 -110.944263 306 2647ft 0kts
24-Sep-23 08:39 32.126173 -110.944264 306 2647ft 0kts
24-Sep-23 08:40 32.126173 -110.944265 306 2647ft 0kts
24-Sep-23 08:40 32.126174 -110.944266 306 2647ft 0kts
24-Sep-23 08:42 32.126175 -110.944268 306 2647ft 0kts
24-Sep-23 08:43 32.126222 -110.944536 277 2647ft 6kts
24-Sep-23 08:44 32.126358 -110.945088 323 2647ft 3kts
24-Sep-23 08:44 32.126251 -110.946446 223 2647ft 14kts
24-Sep-23 08:45 32.124392 -110.947533 127 2647ft 5kts
24-Sep-23 08:46 32.123681 -110.947208 224 2647ft 0kts
24-Sep-23 08:47 32.123680 -110.947210 224 2647ft 0kts
24-Sep-23 08:49 32.123187 -110.947695 125 2647ft 2kts
24-Sep-23 08:50 32.114473 -110.937878 141 2975ft 97kts
24-Sep-23 08:50 32.098049 -110.917165 129 3787ft 115kts
24-Sep-23 08:51 32.086088 -110.882186 102 4632ft 133kts
24-Sep-23 08:52 32.077563 -110.840982 107 6008ft 131kts
24-Sep-23 08:53 32.063219 -110.801411 113 7116ft 133kts
24-Sep-23 08:55 32.048569 -110.742064 103 7498ft 198kts
24-Sep-23 08:55 32.033102 -110.689097 110 7482ft 205kts
24-Sep-23 08:56 32.010100 -110.626951 101 7478ft 200kts
24-Sep-23 08:57 32.003445 -110.560542 99 7549ft 206kts
24-Sep-23 08:58 31.998320 -110.492742 84 7658ft 206kts
24-Sep-23 08:59 32.003927 -110.424039 103 7248ft 221kts
24-Sep-23 09:00 31.980736 -110.362588 123 7554ft 206kts
24-Sep-23 09:01 31.949854 -110.305716 127 7587ft 206kts
24-Sep-23 09:02 31.913381 -110.252108 128 7620ft 209kts
24-Sep-23 09:03 31.875823 -110.200199 129 7623ft 208kts
24-Sep-23 09:04 31.839631 -110.146038 127 7671ft 205kts
24-Sep-23 09:05 31.802712 -110.093309 131 7508ft 205kts
24-Sep-23 09:06 31.766074 -110.041777 127 7618ft 204kts
24-Sep-23 09:07 31.725977 -109.992480 132 7660ft 206kts
24-Sep-23 09:08 31.687762 -109.940764 133 7545ft 213kts
24-Sep-23 09:09 31.646267 -109.891827 136 7616ft 207kts
24-Sep-23 09:10 31.605335 -109.844455 139 7553ft 206kts
24-Sep-23 09:11 31.564249 -109.812955 147 7568ft 161kts
24-Sep-23 09:12 31.564013 -109.778764 31 7809ft 143kts
24-Sep-23 09:13 31.590969 -109.744017 61 7767ft 142kts
24-Sep-23 09:14 31.605583 -109.700668 79 7541ft 141kts
24-Sep-23 09:15 31.578837 -109.667536 150 6959ft 147kts
24-Sep-23 09:16 31.541208 -109.643183 152 6027ft 164kts
24-Sep-23 09:17 31.508438 -109.620762 142 5156ft 111kts
24-Sep-23 09:18 31.480830 -109.604348 179 4438ft 107kts
24-Sep-23 09:19 31.464730 -109.603970 97 4158ft 17kts
24-Sep-23 09:20 31.464704 -109.603663 93 4158ft 5kts
24-Sep-23 09:21 31.464029 -109.600332 184 4158ft 9kts
24-Sep-23 09:22 31.463625 -109.599757 88 4158ft 0kts
24-Sep-23 09:23 31.463625 -109.599756 88 4158ft 0kts
24-Sep-23 09:24 31.463625 -109.599756 88 4158ft 0kts
24-Sep-23 09:25 31.463625 -109.599756 88 4158ft 0kts

Navigation Log

Ident Type
Flight plan parsing failed, navigation log unavailable